Vremea mâine în Băbeni - Romania

Vrei sa afli care e starea vremii acum in Valcea - Romania? Dorim sa iti furnizam starea vremii pentru Valcea - Romania. Starea vremii Valcea - Romania pentru astazi.

Vremea mâine în Băbeni

Temperatura minimă:
11.8 °C

Temperatura maximă:
14.4 °C

Mâine va fi: Ploi moderate
Precipitații: 92 %
Umiditate: 96%
Viteza maximă vânt mâine:
6.1 km/h

Evoluția vremii in Băbeni pe ore mâine

Ora: 11:00
Temperatura: °C
Sansa de precipitatii: %
Ora Descriere Temp Se simte Precipitatii Umiditate Vant
00:00Ploi usoare11.8°12°100%90%NNE 4.3 KM/H
01:00Burniță ușoară11.8°11.8°100%94%W 2.2 KM/H
02:00Patchy rain nearby12.3°13°100%94%WNW 3.2 KM/H
03:00Burniță ușoară12.8°12.8°100%94%N 1.4 KM/H
04:00Burniță ușoară13°13°100%96%NNE 2.5 KM/H
05:00Ploaie ușoară13.1°13.5°100%97%N 4.3 KM/H
06:00Ploaie ușoară12.9°12.9°100%97%N 5.8 KM/H
07:00Ploaie ușoară12.7°12.6°100%97%N 6.1 KM/H
08:00Burniță ușoară12.6°12.5°100%96%N 6.1 KM/H
09:00Burniță ușoară13.3°13.5°100%96%NNE 5 KM/H
10:00Ploaie ușoară14.2°14.9°100%96%NNE 3.6 KM/H
11:00Ploaie ușoară14.4°14.4°100%96%NE 2.9 KM/H
12:00Ploaie ușoară14.4°14.4°100%97%NE 1.8 KM/H
13:00Ploaie ușoară14.3°14.3°100%96%ENE 1.8 KM/H
14:00Ploi usoare14.2°14.2°100%96%ENE 1.8 KM/H
15:00Ploi usoare14.3°14.3°100%96%E 1.4 KM/H
16:00Burniță ușoară14.3°14.3°100%96%ESE 1.1 KM/H
17:00Burniță ușoară14.1°14.1°100%96%SE 0 KM/H
18:00Burniță ușoară13.8°13.8°100%97%NW 1.4 KM/H
19:00Ploaie ușoară13.3°13.3°100%98%NW 2.9 KM/H
20:00Burniță ușoară12.5°13°100%98%NNW 3.6 KM/H
21:00Burniță ușoară12.1°12.5°100%98%NNW 4 KM/H
22:00Burniță ușoară12°12.5°100%97%NNW 3.6 KM/H
23:00Burniță ușoară11.8°11.8°100%97%NW 2.2 KM/H




tutorials